Time;durP1;ratioP1;P1;durP2;ratioP2;P2;SDS_P1;SDS_P2;PMS_P1;PMS_P2;Temp;Humidity;BMP_temperature;BMP_pressure;BME280_temperature;BME280_humidity;BME280_pressure;Samples;Min_cycle;Max_cycle;Signal;HPM_P1;HPM_P2
2022/12/25 20:19:10;;;;;;;1999.90;999.90;;;7.30;99.90;;;;;;6243880;22;20047;-76
2022/12/25 20:21:35;;;;;;;1999.90;999.90;;;7.30;99.90;;;;;;6181331;23;1229388;-77
2022/12/25 20:24:02;;;;;;;1999.90;999.90;;;7.20;99.90;;;;;;6218127;23;20452;-73
2022/12/25 20:26:29;;;;;;;1999.90;999.90;;;7.20;99.90;;;;;;6217571;22;20005;-75
2022/12/25 20:28:55;;;;;;;1999.90;999.90;;;7.10;99.90;;;;;;6189065;23;20033;-74
2022/12/25 20:31:26;;;;;;;1999.90;999.90;;;7.00;99.90;;;;;;6302846;22;20461;-73
2022/12/25 20:33:53;;;;;;;1999.90;999.90;;;7.00;99.90;;;;;;6378050;22;20057;-73
2022/12/25 20:36:23;;;;;;;1999.90;999.90;;;7.30;99.90;;;;;;6377636;22;20007;-73
2022/12/25 20:38:48;;;;;;;1999.90;999.90;;;7.50;99.90;;;;;;6378089;22;20010;-73
2022/12/25 20:41:17;;;;;;;1999.90;999.90;;;7.70;99.90;;;;;;6397479;22;20350;-74
2022/12/25 20:43:43;;;;;;;1999.90;999.90;;;7.90;99.90;;;;;;6381535;22;20022;-74
2022/12/25 20:46:08;;;;;;;1999.90;999.90;;;7.90;99.90;;;;;;6409828;22;20002;-74
2022/12/25 20:48:34;;;;;;;1999.90;999.90;;;8.20;99.90;;;;;;6410025;22;20081;-76
2022/12/25 20:51:12;;;;;;;1999.90;999.90;;;8.30;99.90;;;;;;6409867;22;20373;-74
2022/12/25 20:53:38;;;;;;;1999.90;999.90;;;8.40;99.90;;;;;;6410253;22;20814;-76
2022/12/25 20:56:05;;;;;;;1999.90;999.90;;;8.50;99.90;;;;;;6409693;22;20451;-76
2022/12/25 20:58:31;;;;;;;1999.90;999.90;;;8.60;99.90;;;;;;6381908;22;20062;-78
2022/12/25 21:00:56;;;;;;;1999.90;999.90;;;8.90;99.90;;;;;;6386863;22;20022;-78
2022/12/25 21:03:22;;;;;;;1999.90;999.90;;;9.00;99.90;;;;;;6410339;22;20135;-76
2022/12/25 21:05:52;;;;;;;1999.90;999.90;;;9.10;99.90;;;;;;6413271;22;20017;-76
2022/12/25 21:08:21;;;;;;;1999.90;999.90;;;9.10;99.90;;;;;;6422058;22;20089;-76
2022/12/25 21:10:53;;;;;;;1999.90;999.90;;;9.10;99.90;;;;;;6424038;22;20002;-76
2022/12/25 21:13:20;;;;;;;1999.90;999.90;;;9.10;99.90;;;;;;6409180;22;20003;-76
2022/12/25 21:15:47;;;;;;;1999.90;999.90;;;9.30;99.90;;;;;;6409233;22;20017;-76
2022/12/25 21:18:15;;;;;;;1999.90;999.90;;;9.30;99.90;;;;;;6409924;22;20526;-76
2022/12/25 21:20:45;;;;;;;1999.90;999.90;;;9.30;99.90;;;;;;6409484;22;20020;-76
2022/12/25 21:23:10;;;;;;;1999.90;999.90;;;9.30;99.90;;;;;;6409628;22;20002;-76
2022/12/25 21:25:36;;;;;;;1999.90;999.90;;;9.30;99.90;;;;;;6409546;22;20096;-76
2022/12/25 21:28:01;;;;;;;1999.90;999.90;;;9.30;99.90;;;;;;6408930;22;20040;-76
2022/12/25 21:30:27;;;;;;;1999.90;999.90;;;9.30;99.90;;;;;;6409407;22;20449;-76
2022/12/25 21:35:37;;;;;;;1999.90;999.90;;;9.40;99.90;;;;;;6410121;22;20010;-75
2022/12/25 21:38:03;;;;;;;1999.90;999.90;;;9.30;99.90;;;;;;6381315;22;20010;-76
2022/12/25 21:40:29;;;;;;;1999.90;999.90;;;9.20;99.90;;;;;;6409671;22;20002;-76
2022/12/25 21:42:54;;;;;;;1999.90;999.90;;;9.20;99.90;;;;;;6409683;22;20006;-76
2022/12/25 21:45:20;;;;;;;1999.90;999.90;;;9.20;99.90;;;;;;6410509;22;20037;-76
2022/12/25 21:47:46;;;;;;;1999.90;999.90;;;9.10;99.90;;;;;;6410479;22;21382;-76
2022/12/25 21:52:55;;;;;;;1999.90;999.90;;;8.90;99.90;;;;;;6410590;22;20010;-76
2022/12/25 21:55:21;;;;;;;1999.90;999.90;;;8.80;99.90;;;;;;6381253;22;20376;-76
2022/12/25 21:57:46;;;;;;;1999.90;999.90;;;8.80;99.90;;;;;;6409819;22;20384;-76
2022/12/25 22:00:12;;;;;;;1999.90;999.90;;;8.80;99.90;;;;;;6381240;22;20006;-76
2022/12/25 22:02:38;;;;;;;1999.90;999.90;;;8.70;99.90;;;;;;6409665;22;20429;-76
2022/12/25 22:05:04;;;;;;;1999.90;999.90;;;8.80;99.90;;;;;;6409334;22;20368;-76
2022/12/25 22:07:31;;;;;;;1999.90;999.90;;;8.80;99.90;;;;;;6380707;22;20089;-76
2022/12/25 22:09:57;;;;;;;1999.90;999.90;;;8.70;99.90;;;;;;6380950;22;20087;-76
2022/12/25 22:15:08;;;;;;;1999.90;999.90;;;8.60;99.90;;;;;;6409811;22;20442;-76
2022/12/25 22:20:36;;;;;;;1999.90;999.90;;;8.40;99.90;;;;;;6409545;22;20086;-76
2022/12/25 22:23:01;;;;;;;1999.90;999.90;;;8.50;99.90;;;;;;6409907;22;20081;-76
2022/12/25 22:25:27;;;;;;;1999.90;999.90;;;8.40;99.90;;;;;;6408928;22;20037;-76
2022/12/25 22:27:53;;;;;;;1999.90;999.90;;;8.40;99.90;;;;;;6381017;22;20048;-76
2022/12/25 22:30:24;;;;;;;1999.90;999.90;;;8.70;99.90;;;;;;6380745;22;20037;-76
2022/12/25 22:32:51;;;;;;;1999.90;999.90;;;8.80;99.90;;;;;;6407952;22;20007;-76
2022/12/25 22:35:17;;;;;;;1999.90;999.90;;;9.00;99.90;;;;;;6409546;22;20014;-76
2022/12/25 22:37:43;;;;;;;1999.90;999.90;;;9.40;99.90;;;;;;6409245;22;20068;-76
2022/12/25 22:40:11;;;;;;;1999.90;999.90;;;9.50;99.90;;;;;;6409118;22;20043;-76
2022/12/25 22:42:37;;;;;;;1999.90;999.90;;;9.60;99.90;;;;;;6409417;22;19998;-76
2022/12/25 22:45:03;;;;;;;1999.90;999.90;;;9.40;99.90;;;;;;6380734;22;20018;-76
2022/12/25 22:47:29;;;;;;;1999.90;999.90;;;9.20;99.90;;;;;;6407385;22;20127;-76
2022/12/25 22:49:54;;;;;;;1999.90;999.90;;;9.40;99.90;;;;;;6409088;22;20030;-76
2022/12/25 22:52:20;;;;;;;1999.90;999.90;;;9.60;99.90;;;;;;6409519;22;20002;-76
2022/12/25 22:54:46;;;;;;;1999.90;999.90;;;9.70;99.90;;;;;;6409311;22;20006;-76
2022/12/25 22:57:11;;;;;;;1999.90;999.90;;;9.70;99.90;;;;;;6380420;22;19998;-76
2022/12/25 22:59:37;;;;;;;1999.90;999.90;;;9.70;99.90;;;;;;6409253;22;20006;-76
